sensor_id;sensor_type;location;lat;lon;timestamp;P1;durP1;ratioP1;P2;durP2;ratioP2
65206;SDS011;58477;48.072;11.970;2022-08-07T00:00:46;16.08;;;9.48;;
65206;SDS011;58477;48.072;11.970;2022-08-07T00:03:12;10.55;;;8.50;;
65206;SDS011;58477;48.072;11.970;2022-08-07T00:05:37;12.75;;;8.98;;
65206;SDS011;58477;48.072;11.970;2022-08-07T00:08:03;10.45;;;8.32;;
65206;SDS011;58477;48.072;11.970;2022-08-07T00:10:29;13.32;;;8.02;;
65206;SDS011;58477;48.072;11.970;2022-08-07T00:12:55;14.68;;;8.65;;
65206;SDS011;58477;48.072;11.970;2022-08-07T00:15:23;11.73;;;8.05;;
65206;SDS011;58477;48.072;11.970;2022-08-07T00:17:49;12.68;;;7.82;;
65206;SDS011;58477;48.072;11.970;2022-08-07T00:20:15;11.68;;;7.70;;
65206;SDS011;58477;48.072;11.970;2022-08-07T00:22:40;10.48;;;7.40;;
65206;SDS011;58477;48.072;11.970;2022-08-07T00:25:06;9.57;;;7.00;;
65206;SDS011;58477;48.072;11.970;2022-08-07T00:27:33;10.52;;;6.75;;
65206;SDS011;58477;48.072;11.970;2022-08-07T00:30:00;15.45;;;7.80;;
65206;SDS011;58477;48.072;11.970;2022-08-07T00:32:26;12.85;;;7.82;;
65206;SDS011;58477;48.072;11.970;2022-08-07T00:34:52;9.88;;;7.00;;
65206;SDS011;58477;48.072;11.970;2022-08-07T00:37:18;9.63;;;6.45;;
65206;SDS011;58477;48.072;11.970;2022-08-07T00:39:43;9.50;;;6.28;;
65206;SDS011;58477;48.072;11.970;2022-08-07T00:42:09;8.57;;;6.82;;
65206;SDS011;58477;48.072;11.970;2022-08-07T00:44:34;15.95;;;6.47;;
65206;SDS011;58477;48.072;11.970;2022-08-07T00:47:03;8.60;;;6.43;;
65206;SDS011;58477;48.072;11.970;2022-08-07T00:49:30;9.20;;;6.22;;
65206;SDS011;58477;48.072;11.970;2022-08-07T00:51:56;8.30;;;5.93;;
65206;SDS011;58477;48.072;11.970;2022-08-07T00:54:22;9.07;;;6.43;;
65206;SDS011;58477;48.072;11.970;2022-08-07T00:56:48;7.68;;;6.13;;
65206;SDS011;58477;48.072;11.970;2022-08-07T00:59:14;9.05;;;6.13;;
65206;SDS011;58477;48.072;11.970;2022-08-07T01:01:40;9.93;;;6.40;;
65206;SDS011;58477;48.072;11.970;2022-08-07T01:04:06;9.90;;;6.55;;
65206;SDS011;58477;48.072;11.970;2022-08-07T01:06:32;8.52;;;6.32;;
65206;SDS011;58477;48.072;11.970;2022-08-07T01:08:59;9.48;;;6.18;;
65206;SDS011;58477;48.072;11.970;2022-08-07T01:11:26;7.95;;;5.88;;
65206;SDS011;58477;48.072;11.970;2022-08-07T01:13:52;6.70;;;5.80;;
65206;SDS011;58477;48.072;11.970;2022-08-07T01:16:17;7.25;;;5.43;;
65206;SDS011;58477;48.072;11.970;2022-08-07T01:18:43;7.40;;;5.50;;
65206;SDS011;58477;48.072;11.970;2022-08-07T01:21:10;7.50;;;5.13;;
65206;SDS011;58477;48.072;11.970;2022-08-07T01:23:37;9.85;;;5.85;;
65206;SDS011;58477;48.072;11.970;2022-08-07T01:26:09;9.00;;;5.50;;
65206;SDS011;58477;48.072;11.970;2022-08-07T01:28:37;7.78;;;5.57;;
65206;SDS011;58477;48.072;11.970;2022-08-07T01:31:07;9.70;;;5.38;;
65206;SDS011;58477;48.072;11.970;2022-08-07T01:33:34;6.32;;;5.10;;
65206;SDS011;58477;48.072;11.970;2022-08-07T01:36:00;6.57;;;5.47;;
65206;SDS011;58477;48.072;11.970;2022-08-07T01:38:28;12.10;;;6.25;;
65206;SDS011;58477;48.072;11.970;2022-08-07T01:41:02;11.40;;;5.78;;
65206;SDS011;58477;48.072;11.970;2022-08-07T01:43:30;10.52;;;5.90;;
65206;SDS011;58477;48.072;11.970;2022-08-07T01:45:56;6.60;;;5.70;;
65206;SDS011;58477;48.072;11.970;2022-08-07T01:48:22;8.10;;;5.50;;
65206;SDS011;58477;48.072;11.970;2022-08-07T01:50:49;10.48;;;5.93;;
65206;SDS011;58477;48.072;11.970;2022-08-07T01:53:18;7.75;;;5.28;;
65206;SDS011;58477;48.072;11.970;2022-08-07T01:55:50;7.63;;;5.90;;
65206;SDS011;58477;48.072;11.970;2022-08-07T01:58:18;6.30;;;4.32;;
65206;SDS011;58477;48.072;11.970;2022-08-07T02:00:52;8.60;;;5.25;;
65206;SDS011;58477;48.072;11.970;2022-08-07T02:03:21;8.65;;;4.75;;
65206;SDS011;58477;48.072;11.970;2022-08-07T02:05:57;7.72;;;4.25;;
65206;SDS011;58477;48.072;11.970;2022-08-07T02:08:33;4.47;;;3.92;;
65206;SDS011;58477;48.072;11.970;2022-08-07T02:11:04;8.63;;;4.60;;
65206;SDS011;58477;48.072;11.970;2022-08-07T02:13:31;7.57;;;4.55;;
65206;SDS011;58477;48.072;11.970;2022-08-07T02:15:59;5.20;;;4.40;;
65206;SDS011;58477;48.072;11.970;2022-08-07T02:18:27;4.72;;;4.18;;
65206;SDS011;58477;48.072;11.970;2022-08-07T02:20:55;5.18;;;3.90;;
65206;SDS011;58477;48.072;11.970;2022-08-07T02:23:23;5.57;;;3.88;;
65206;SDS011;58477;48.072;11.970;2022-08-07T02:25:49;6.30;;;3.70;;
65206;SDS011;58477;48.072;11.970;2022-08-07T02:28:18;3.95;;;3.50;;
65206;SDS011;58477;48.072;11.970;2022-08-07T02:30:44;3.95;;;3.20;;
65206;SDS011;58477;48.072;11.970;2022-08-07T02:33:13;5.00;;;3.00;;
65206;SDS011;58477;48.072;11.970;2022-08-07T02:35:42;6.25;;;3.45;;
65206;SDS011;58477;48.072;11.970;2022-08-07T02:38:10;3.60;;;3.30;;
65206;SDS011;58477;48.072;11.970;2022-08-07T02:40:38;4.50;;;3.28;;
65206;SDS011;58477;48.072;11.970;2022-08-07T02:43:05;4.45;;;3.05;;
65206;SDS011;58477;48.072;11.970;2022-08-07T02:45:32;5.97;;;3.17;;
65206;SDS011;58477;48.072;11.970;2022-08-07T02:47:58;3.50;;;3.17;;
65206;SDS011;58477;48.072;11.970;2022-08-07T02:50:24;6.30;;;2.92;;
65206;SDS011;58477;48.072;11.970;2022-08-07T02:52:54;5.07;;;3.17;;
65206;SDS011;58477;48.072;11.970;2022-08-07T02:55:28;3.85;;;3.53;;
65206;SDS011;58477;48.072;11.970;2022-08-07T03:00:23;3.03;;;2.70;;
65206;SDS011;58477;48.072;11.970;2022-08-07T03:02:51;4.45;;;3.13;;
65206;SDS011;58477;48.072;11.970;2022-08-07T03:05:18;3.63;;;3.10;;
65206;SDS011;58477;48.072;11.970;2022-08-07T03:07:44;3.65;;;2.92;;
65206;SDS011;58477;48.072;11.970;2022-08-07T03:10:12;3.05;;;2.83;;
65206;SDS011;58477;48.072;11.970;2022-08-07T03:12:41;3.60;;;3.20;;
65206;SDS011;58477;48.072;11.970;2022-08-07T03:15:10;3.63;;;3.25;;
65206;SDS011;58477;48.072;11.970;2022-08-07T03:17:37;3.53;;;2.90;;
65206;SDS011;58477;48.072;11.970;2022-08-07T03:20:06;3.30;;;3.00;;
65206;SDS011;58477;48.072;11.970;2022-08-07T03:22:32;5.38;;;3.20;;
65206;SDS011;58477;48.072;11.970;2022-08-07T03:24:59;6.28;;;3.75;;
65206;SDS011;58477;48.072;11.970;2022-08-07T03:27:27;4.10;;;3.15;;
65206;SDS011;58477;48.072;11.970;2022-08-07T03:29:53;4.07;;;3.13;;
65206;SDS011;58477;48.072;11.970;2022-08-07T03:32:31;5.57;;;3.47;;
65206;SDS011;58477;48.072;11.970;2022-08-07T03:35:02;4.50;;;3.45;;
65206;SDS011;58477;48.072;11.970;2022-08-07T03:37:30;4.55;;;3.35;;
65206;SDS011;58477;48.072;11.970;2022-08-07T03:40:00;5.55;;;4.10;;
65206;SDS011;58477;48.072;11.970;2022-08-07T03:42:26;3.58;;;3.10;;
65206;SDS011;58477;48.072;11.970;2022-08-07T03:44:53;3.38;;;3.10;;
65206;SDS011;58477;48.072;11.970;2022-08-07T03:47:20;3.13;;;2.83;;
65206;SDS011;58477;48.072;11.970;2022-08-07T03:49:46;6.40;;;3.20;;
65206;SDS011;58477;48.072;11.970;2022-08-07T03:52:13;3.42;;;3.10;;
65206;SDS011;58477;48.072;11.970;2022-08-07T03:54:40;3.13;;;2.75;;
65206;SDS011;58477;48.072;11.970;2022-08-07T03:57:07;4.95;;;3.00;;
65206;SDS011;58477;48.072;11.970;2022-08-07T03:59:35;3.50;;;2.65;;
65206;SDS011;58477;48.072;11.970;2022-08-07T04:02:01;3.35;;;3.00;;
65206;SDS011;58477;48.072;11.970;2022-08-07T04:04:27;3.20;;;2.88;;
65206;SDS011;58477;48.072;11.970;2022-08-07T04:06:57;3.47;;;2.90;;
65206;SDS011;58477;48.072;11.970;2022-08-07T04:09:22;4.13;;;2.78;;
65206;SDS011;58477;48.072;11.970;2022-08-07T04:11:49;3.38;;;2.97;;
65206;SDS011;58477;48.072;11.970;2022-08-07T04:14:16;4.90;;;3.10;;
65206;SDS011;58477;48.072;11.970;2022-08-07T04:16:42;5.63;;;2.90;;
65206;SDS011;58477;48.072;11.970;2022-08-07T04:19:08;6.10;;;2.97;;
65206;SDS011;58477;48.072;11.970;2022-08-07T04:21:34;3.75;;;3.10;;
65206;SDS011;58477;48.072;11.970;2022-08-07T04:24:01;3.38;;;2.90;;
65206;SDS011;58477;48.072;11.970;2022-08-07T04:26:27;4.75;;;3.17;;
65206;SDS011;58477;48.072;11.970;2022-08-07T04:28:53;3.15;;;2.80;;
65206;SDS011;58477;48.072;11.970;2022-08-07T04:31:18;2.97;;;2.67;;
65206;SDS011;58477;48.072;11.970;2022-08-07T04:33:48;4.85;;;3.00;;
65206;SDS011;58477;48.072;11.970;2022-08-07T04:36:14;3.15;;;2.90;;
65206;SDS011;58477;48.072;11.970;2022-08-07T04:38:41;2.70;;;2.50;;
65206;SDS011;58477;48.072;11.970;2022-08-07T04:41:07;4.65;;;2.28;;
65206;SDS011;58477;48.072;11.970;2022-08-07T04:43:38;3.90;;;2.45;;
65206;SDS011;58477;48.072;11.970;2022-08-07T04:51:42;3.35;;;2.28;;
65206;SDS011;58477;48.072;11.970;2022-08-07T04:54:14;2.35;;;2.05;;
65206;SDS011;58477;48.072;11.970;2022-08-07T04:56:46;2.35;;;2.15;;
65206;SDS011;58477;48.072;11.970;2022-08-07T04:59:17;2.40;;;2.13;;
65206;SDS011;58477;48.072;11.970;2022-08-07T05:02:03;2.42;;;1.98;;
65206;SDS011;58477;48.072;11.970;2022-08-07T05:10:38;2.67;;;1.90;;
65206;SDS011;58477;48.072;11.970;2022-08-07T05:13:13;2.17;;;1.92;;
65206;SDS011;58477;48.072;11.970;2022-08-07T05:15:44;2.95;;;2.00;;
65206;SDS011;58477;48.072;11.970;2022-08-07T05:18:19;2.17;;;1.92;;
65206;SDS011;58477;48.072;11.970;2022-08-07T05:20:50;2.35;;;1.85;;
65206;SDS011;58477;48.072;11.970;2022-08-07T05:23:20;2.72;;;2.22;;
65206;SDS011;58477;48.072;11.970;2022-08-07T05:25:50;3.92;;;3.10;;
65206;SDS011;58477;48.072;11.970;2022-08-07T05:28:17;2.40;;;2.00;;
65206;SDS011;58477;48.072;11.970;2022-08-07T05:30:44;2.92;;;2.10;;
65206;SDS011;58477;48.072;11.970;2022-08-07T05:33:12;1.83;;;1.60;;
65206;SDS011;58477;48.072;11.970;2022-08-07T05:35:39;3.92;;;1.80;;
65206;SDS011;58477;48.072;11.970;2022-08-07T05:38:06;1.83;;;1.70;;
65206;SDS011;58477;48.072;11.970;2022-08-07T05:40:33;1.83;;;1.67;;
65206;SDS011;58477;48.072;11.970;2022-08-07T05:43:02;2.00;;;1.90;;
65206;SDS011;58477;48.072;11.970;2022-08-07T05:45:29;3.85;;;1.90;;
65206;SDS011;58477;48.072;11.970;2022-08-07T05:47:59;3.55;;;1.73;;
65206;SDS011;58477;48.072;11.970;2022-08-07T05:50:29;3.65;;;2.08;;
65206;SDS011;58477;48.072;11.970;2022-08-07T05:52:56;4.30;;;1.70;;
65206;SDS011;58477;48.072;11.970;2022-08-07T05:55:21;2.10;;;1.90;;
65206;SDS011;58477;48.072;11.970;2022-08-07T05:57:47;2.00;;;1.85;;
65206;SDS011;58477;48.072;11.970;2022-08-07T06:00:15;4.60;;;1.85;;
65206;SDS011;58477;48.072;11.970;2022-08-07T06:05:14;3.60;;;2.25;;
65206;SDS011;58477;48.072;11.970;2022-08-07T06:07:41;3.38;;;2.10;;
65206;SDS011;58477;48.072;11.970;2022-08-07T06:10:09;3.70;;;2.05;;
65206;SDS011;58477;48.072;11.970;2022-08-07T06:12:35;3.05;;;2.13;;
65206;SDS011;58477;48.072;11.970;2022-08-07T06:15:02;2.15;;;1.80;;
65206;SDS011;58477;48.072;11.970;2022-08-07T06:17:29;4.68;;;1.73;;
65206;SDS011;58477;48.072;11.970;2022-08-07T06:19:56;4.90;;;2.53;;
65206;SDS011;58477;48.072;11.970;2022-08-07T06:22:22;4.15;;;1.75;;
65206;SDS011;58477;48.072;11.970;2022-08-07T06:24:58;1.92;;;1.70;;
65206;SDS011;58477;48.072;11.970;2022-08-07T06:27:24;3.75;;;2.00;;
65206;SDS011;58477;48.072;11.970;2022-08-07T06:29:51;4.68;;;1.90;;
65206;SDS011;58477;48.072;11.970;2022-08-07T06:32:17;3.92;;;1.92;;
65206;SDS011;58477;48.072;11.970;2022-08-07T06:34:43;3.50;;;1.80;;
65206;SDS011;58477;48.072;11.970;2022-08-07T06:37:08;3.85;;;2.28;;
65206;SDS011;58477;48.072;11.970;2022-08-07T06:39:36;2.35;;;2.15;;
65206;SDS011;58477;48.072;11.970;2022-08-07T06:42:17;2.72;;;2.00;;
65206;SDS011;58477;48.072;11.970;2022-08-07T06:45:14;4.15;;;2.10;;
65206;SDS011;58477;48.072;11.970;2022-08-07T06:47:44;4.88;;;2.45;;
65206;SDS011;58477;48.072;11.970;2022-08-07T06:50:12;2.83;;;2.15;;
65206;SDS011;58477;48.072;11.970;2022-08-07T06:52:41;4.50;;;2.20;;
65206;SDS011;58477;48.072;11.970;2022-08-07T06:55:13;2.67;;;2.20;;
65206;SDS011;58477;48.072;11.970;2022-08-07T06:57:43;5.28;;;2.17;;
65206;SDS011;58477;48.072;11.970;2022-08-07T07:00:11;2.58;;;1.90;;
65206;SDS011;58477;48.072;11.970;2022-08-07T07:02:38;2.78;;;1.98;;
65206;SDS011;58477;48.072;11.970;2022-08-07T07:05:06;2.45;;;2.05;;
65206;SDS011;58477;48.072;11.970;2022-08-07T07:07:32;2.60;;;2.30;;
65206;SDS011;58477;48.072;11.970;2022-08-07T07:09:57;6.43;;;2.17;;
65206;SDS011;58477;48.072;11.970;2022-08-07T07:12:29;2.75;;;2.00;;
65206;SDS011;58477;48.072;11.970;2022-08-07T07:15:06;2.50;;;2.13;;
65206;SDS011;58477;48.072;11.970;2022-08-07T07:20:22;4.43;;;1.90;;
65206;SDS011;58477;48.072;11.970;2022-08-07T07:22:51;3.05;;;2.20;;
65206;SDS011;58477;48.072;11.970;2022-08-07T07:25:19;2.78;;;1.70;;
65206;SDS011;58477;48.072;11.970;2022-08-07T07:30:44;3.78;;;1.58;;
65206;SDS011;58477;48.072;11.970;2022-08-07T07:33:15;1.98;;;1.65;;
65206;SDS011;58477;48.072;11.970;2022-08-07T07:35:45;3.55;;;2.00;;
65206;SDS011;58477;48.072;11.970;2022-08-07T07:38:12;2.05;;;1.85;;
65206;SDS011;58477;48.072;11.970;2022-08-07T07:40:40;2.03;;;1.92;;
65206;SDS011;58477;48.072;11.970;2022-08-07T07:43:07;7.30;;;1.67;;
65206;SDS011;58477;48.072;11.970;2022-08-07T07:45:34;2.20;;;2.00;;
65206;SDS011;58477;48.072;11.970;2022-08-07T07:48:02;2.13;;;1.73;;
65206;SDS011;58477;48.072;11.970;2022-08-07T07:50:29;1.58;;;1.48;;
65206;SDS011;58477;48.072;11.970;2022-08-07T07:52:56;1.83;;;1.73;;
65206;SDS011;58477;48.072;11.970;2022-08-07T07:55:23;4.68;;;1.80;;
65206;SDS011;58477;48.072;11.970;2022-08-07T07:57:50;3.80;;;1.60;;
65206;SDS011;58477;48.072;11.970;2022-08-07T08:00:16;4.30;;;1.77;;
65206;SDS011;58477;48.072;11.970;2022-08-07T08:02:43;3.08;;;1.75;;
65206;SDS011;58477;48.072;11.970;2022-08-07T08:05:11;1.67;;;1.58;;
65206;SDS011;58477;48.072;11.970;2022-08-07T08:07:39;1.75;;;1.58;;
65206;SDS011;58477;48.072;11.970;2022-08-07T08:10:07;1.67;;;1.58;;
65206;SDS011;58477;48.072;11.970;2022-08-07T08:12:34;3.20;;;1.70;;
65206;SDS011;58477;48.072;11.970;2022-08-07T08:15:00;3.85;;;2.10;;
65206;SDS011;58477;48.072;11.970;2022-08-07T08:17:25;5.50;;;1.80;;
65206;SDS011;58477;48.072;11.970;2022-08-07T08:19:59;3.08;;;1.48;;
65206;SDS011;58477;48.072;11.970;2022-08-07T08:22:29;2.17;;;1.58;;
65206;SDS011;58477;48.072;11.970;2022-08-07T08:25:16;2.17;;;1.65;;
65206;SDS011;58477;48.072;11.970;2022-08-07T08:28:02;1.60;;;1.50;;
65206;SDS011;58477;48.072;11.970;2022-08-07T08:30:30;5.25;;;2.13;;
65206;SDS011;58477;48.072;11.970;2022-08-07T08:32:58;2.55;;;1.80;;
65206;SDS011;58477;48.072;11.970;2022-08-07T08:35:25;1.83;;;1.73;;
65206;SDS011;58477;48.072;11.970;2022-08-07T08:37:55;2.95;;;1.63;;
65206;SDS011;58477;48.072;11.970;2022-08-07T08:40:30;2.10;;;1.75;;
65206;SDS011;58477;48.072;11.970;2022-08-07T08:46:00;1.67;;;1.58;;
65206;SDS011;58477;48.072;11.970;2022-08-07T08:48:36;1.80;;;1.58;;
65206;SDS011;58477;48.072;11.970;2022-08-07T08:54:10;4.40;;;1.83;;
65206;SDS011;58477;48.072;11.970;2022-08-07T08:56:52;4.00;;;1.75;;
65206;SDS011;58477;48.072;11.970;2022-08-07T09:00:06;3.90;;;1.50;;
65206;SDS011;58477;48.072;11.970;2022-08-07T09:10:13;4.28;;;1.75;;
65206;SDS011;58477;48.072;11.970;2022-08-07T09:37:11;4.75;;;1.70;;
65206;SDS011;58477;48.072;11.970;2022-08-07T09:48:16;2.08;;;1.80;;
65206;SDS011;58477;48.072;11.970;2022-08-07T09:50:47;3.15;;;1.77;;
65206;SDS011;58477;48.072;11.970;2022-08-07T09:53:20;2.53;;;1.55;;
65206;SDS011;58477;48.072;11.970;2022-08-07T10:21:20;2.53;;;1.88;;
65206;SDS011;58477;48.072;11.970;2022-08-07T10:34:24;1.98;;;1.88;;
65206;SDS011;58477;48.072;11.970;2022-08-07T10:45:37;2.10;;;1.77;;
65206;SDS011;58477;48.072;11.970;2022-08-07T10:51:21;2.97;;;2.00;;
65206;SDS011;58477;48.072;11.970;2022-08-07T10:56:52;2.65;;;1.77;;
65206;SDS011;58477;48.072;11.970;2022-08-07T10:59:34;2.65;;;1.90;;
65206;SDS011;58477;48.072;11.970;2022-08-07T11:07:39;2.92;;;1.65;;
65206;SDS011;58477;48.072;11.970;2022-08-07T11:10:12;1.50;;;1.40;;
65206;SDS011;58477;48.072;11.970;2022-08-07T11:15:49;4.25;;;1.90;;
65206;SDS011;58477;48.072;11.970;2022-08-07T11:18:20;2.22;;;1.90;;
65206;SDS011;58477;48.072;11.970;2022-08-07T11:20:58;1.92;;;1.60;;
65206;SDS011;58477;48.072;11.970;2022-08-07T11:26:25;1.58;;;1.33;;
65206;SDS011;58477;48.072;11.970;2022-08-07T11:29:07;1.50;;;1.40;;
65206;SDS011;58477;48.072;11.970;2022-08-07T11:45:27;1.92;;;1.50;;
65206;SDS011;58477;48.072;11.970;2022-08-07T11:50:31;3.67;;;1.30;;
65206;SDS011;58477;48.072;11.970;2022-08-07T11:53:11;2.72;;;1.50;;
65206;SDS011;58477;48.072;11.970;2022-08-07T12:06:51;1.70;;;1.60;;
65206;SDS011;58477;48.072;11.970;2022-08-07T12:09:21;1.75;;;1.65;;
65206;SDS011;58477;48.072;11.970;2022-08-07T12:11:54;2.30;;;1.45;;
65206;SDS011;58477;48.072;11.970;2022-08-07T12:14:26;2.72;;;1.30;;
65206;SDS011;58477;48.072;11.970;2022-08-07T12:17:02;4.65;;;1.15;;
65206;SDS011;58477;48.072;11.970;2022-08-07T12:19:40;6.47;;;1.70;;
65206;SDS011;58477;48.072;11.970;2022-08-07T12:22:16;1.63;;;1.38;;
65206;SDS011;58477;48.072;11.970;2022-08-07T12:27:53;1.50;;;1.40;;
65206;SDS011;58477;48.072;11.970;2022-08-07T12:30:25;3.13;;;1.35;;
65206;SDS011;58477;48.072;11.970;2022-08-07T12:33:03;1.45;;;1.35;;
65206;SDS011;58477;48.072;11.970;2022-08-07T12:35:34;3.13;;;1.23;;
65206;SDS011;58477;48.072;11.970;2022-08-07T12:38:01;3.63;;;1.40;;
65206;SDS011;58477;48.072;11.970;2022-08-07T12:40:29;1.85;;;1.70;;
65206;SDS011;58477;48.072;11.970;2022-08-07T12:42:58;2.63;;;1.50;;
65206;SDS011;58477;48.072;11.970;2022-08-07T12:45:26;2.95;;;1.33;;
65206;SDS011;58477;48.072;11.970;2022-08-07T12:48:23;2.30;;;1.55;;
65206;SDS011;58477;48.072;11.970;2022-08-07T12:51:04;2.40;;;1.50;;
65206;SDS011;58477;48.072;11.970;2022-08-07T12:56:32;2.03;;;1.30;;
65206;SDS011;58477;48.072;11.970;2022-08-07T12:59:02;3.17;;;1.60;;
65206;SDS011;58477;48.072;11.970;2022-08-07T13:04:17;4.45;;;1.60;;
65206;SDS011;58477;48.072;11.970;2022-08-07T13:07:05;1.50;;;1.35;;
65206;SDS011;58477;48.072;11.970;2022-08-07T13:09:59;3.33;;;1.60;;
65206;SDS011;58477;48.072;11.970;2022-08-07T13:15:22;2.00;;;1.15;;
65206;SDS011;58477;48.072;11.970;2022-08-07T13:20:43;2.13;;;1.55;;
65206;SDS011;58477;48.072;11.970;2022-08-07T13:23:23;2.75;;;1.50;;
65206;SDS011;58477;48.072;11.970;2022-08-07T13:26:29;5.47;;;1.50;;
65206;SDS011;58477;48.072;11.970;2022-08-07T13:31:48;1.73;;;1.30;;
65206;SDS011;58477;48.072;11.970;2022-08-07T13:34:37;3.28;;;1.40;;
65206;SDS011;58477;48.072;11.970;2022-08-07T13:43:03;2.30;;;1.63;;
65206;SDS011;58477;48.072;11.970;2022-08-07T13:45:31;2.15;;;1.73;;
65206;SDS011;58477;48.072;11.970;2022-08-07T13:47:58;3.42;;;1.77;;
65206;SDS011;58477;48.072;11.970;2022-08-07T13:50:27;3.50;;;1.90;;
65206;SDS011;58477;48.072;11.970;2022-08-07T13:52:54;3.15;;;1.60;;
65206;SDS011;58477;48.072;11.970;2022-08-07T13:55:21;3.25;;;1.50;;
65206;SDS011;58477;48.072;11.970;2022-08-07T13:57:57;2.85;;;1.60;;
65206;SDS011;58477;48.072;11.970;2022-08-07T14:00:48;5.73;;;1.80;;
65206;SDS011;58477;48.072;11.970;2022-08-07T14:03:15;2.33;;;1.83;;
65206;SDS011;58477;48.072;11.970;2022-08-07T14:05:43;1.60;;;1.50;;
65206;SDS011;58477;48.072;11.970;2022-08-07T14:08:10;3.65;;;1.80;;
65206;SDS011;58477;48.072;11.970;2022-08-07T14:10:36;4.55;;;2.05;;
65206;SDS011;58477;48.072;11.970;2022-08-07T14:13:05;2.60;;;2.00;;
65206;SDS011;58477;48.072;11.970;2022-08-07T14:15:38;3.30;;;1.90;;
65206;SDS011;58477;48.072;11.970;2022-08-07T14:18:13;3.83;;;2.08;;
65206;SDS011;58477;48.072;11.970;2022-08-07T14:20:42;4.22;;;1.92;;
65206;SDS011;58477;48.072;11.970;2022-08-07T14:25:45;2.30;;;2.08;;
65206;SDS011;58477;48.072;11.970;2022-08-07T14:28:18;2.67;;;1.83;;
65206;SDS011;58477;48.072;11.970;2022-08-07T14:30:46;3.10;;;2.10;;
65206;SDS011;58477;48.072;11.970;2022-08-07T14:33:13;4.68;;;2.05;;
65206;SDS011;58477;48.072;11.970;2022-08-07T14:35:40;3.95;;;2.17;;
65206;SDS011;58477;48.072;11.970;2022-08-07T14:38:06;2.35;;;1.83;;
65206;SDS011;58477;48.072;11.970;2022-08-07T14:40:33;2.85;;;2.10;;
65206;SDS011;58477;48.072;11.970;2022-08-07T14:43:09;4.72;;;2.28;;
65206;SDS011;58477;48.072;11.970;2022-08-07T14:45:45;2.45;;;1.77;;
65206;SDS011;58477;48.072;11.970;2022-08-07T14:48:17;3.30;;;2.10;;
65206;SDS011;58477;48.072;11.970;2022-08-07T14:50:49;1.92;;;1.80;;
65206;SDS011;58477;48.072;11.970;2022-08-07T14:53:16;2.28;;;2.00;;
65206;SDS011;58477;48.072;11.970;2022-08-07T14:55:44;2.30;;;2.10;;
65206;SDS011;58477;48.072;11.970;2022-08-07T14:58:12;3.25;;;2.00;;
65206;SDS011;58477;48.072;11.970;2022-08-07T15:00:40;2.13;;;1.70;;
65206;SDS011;58477;48.072;11.970;2022-08-07T15:03:08;4.63;;;2.20;;
65206;SDS011;58477;48.072;11.970;2022-08-07T15:05:35;3.17;;;1.95;;
65206;SDS011;58477;48.072;11.970;2022-08-07T15:08:05;3.55;;;1.75;;
65206;SDS011;58477;48.072;11.970;2022-08-07T15:10:38;3.63;;;2.03;;
65206;SDS011;58477;48.072;11.970;2022-08-07T15:13:14;2.60;;;2.10;;
65206;SDS011;58477;48.072;11.970;2022-08-07T15:15:43;2.92;;;2.10;;
65206;SDS011;58477;48.072;11.970;2022-08-07T15:18:14;2.38;;;1.90;;
65206;SDS011;58477;48.072;11.970;2022-08-07T15:20:43;3.65;;;2.03;;
65206;SDS011;58477;48.072;11.970;2022-08-07T15:23:13;4.40;;;2.00;;
65206;SDS011;58477;48.072;11.970;2022-08-07T15:25:49;7.95;;;2.08;;
65206;SDS011;58477;48.072;11.970;2022-08-07T15:28:19;3.28;;;2.00;;
65206;SDS011;58477;48.072;11.970;2022-08-07T15:30:47;2.22;;;2.03;;
65206;SDS011;58477;48.072;11.970;2022-08-07T15:33:17;2.20;;;2.00;;
65206;SDS011;58477;48.072;11.970;2022-08-07T15:35:48;3.55;;;1.90;;
65206;SDS011;58477;48.072;11.970;2022-08-07T15:38:38;1.90;;;1.80;;
65206;SDS011;58477;48.072;11.970;2022-08-07T15:41:07;2.22;;;2.03;;
65206;SDS011;58477;48.072;11.970;2022-08-07T15:43:36;2.03;;;1.92;;
65206;SDS011;58477;48.072;11.970;2022-08-07T15:46:15;2.20;;;2.00;;
65206;SDS011;58477;48.072;11.970;2022-08-07T15:48:45;2.65;;;2.10;;
65206;SDS011;58477;48.072;11.970;2022-08-07T15:51:12;3.70;;;2.10;;
65206;SDS011;58477;48.072;11.970;2022-08-07T15:53:48;2.00;;;1.80;;
65206;SDS011;58477;48.072;11.970;2022-08-07T15:56:16;1.85;;;1.67;;
65206;SDS011;58477;48.072;11.970;2022-08-07T15:58:47;2.92;;;2.00;;
65206;SDS011;58477;48.072;11.970;2022-08-07T16:01:17;4.82;;;2.25;;
65206;SDS011;58477;48.072;11.970;2022-08-07T16:03:47;3.40;;;1.90;;
65206;SDS011;58477;48.072;11.970;2022-08-07T16:06:15;2.72;;;2.38;;
65206;SDS011;58477;48.072;11.970;2022-08-07T16:08:48;2.30;;;2.10;;
65206;SDS011;58477;48.072;11.970;2022-08-07T16:11:23;3.08;;;1.95;;
65206;SDS011;58477;48.072;11.970;2022-08-07T16:16:45;1.98;;;1.67;;
65206;SDS011;58477;48.072;11.970;2022-08-07T16:25:17;3.10;;;2.13;;
65206;SDS011;58477;48.072;11.970;2022-08-07T16:28:10;2.85;;;1.85;;
65206;SDS011;58477;48.072;11.970;2022-08-07T16:30:43;2.97;;;1.80;;
65206;SDS011;58477;48.072;11.970;2022-08-07T16:33:16;3.05;;;2.00;;
65206;SDS011;58477;48.072;11.970;2022-08-07T16:35:46;2.65;;;2.00;;
65206;SDS011;58477;48.072;11.970;2022-08-07T16:46:28;1.90;;;1.70;;
65206;SDS011;58477;48.072;11.970;2022-08-07T16:54:54;2.83;;;1.90;;
65206;SDS011;58477;48.072;11.970;2022-08-07T17:00:24;2.45;;;2.28;;
65206;SDS011;58477;48.072;11.970;2022-08-07T17:11:05;2.40;;;1.85;;
65206;SDS011;58477;48.072;11.970;2022-08-07T17:16:26;2.17;;;1.58;;
65206;SDS011;58477;48.072;11.970;2022-08-07T17:19:06;2.65;;;1.77;;
65206;SDS011;58477;48.072;11.970;2022-08-07T17:21:43;2.90;;;1.83;;
65206;SDS011;58477;48.072;11.970;2022-08-07T17:32:28;1.83;;;1.58;;
65206;SDS011;58477;48.072;11.970;2022-08-07T17:35:08;3.35;;;1.90;;
65206;SDS011;58477;48.072;11.970;2022-08-07T17:37:54;1.63;;;1.52;;
65206;SDS011;58477;48.072;11.970;2022-08-07T17:43:30;3.75;;;2.10;;
65206;SDS011;58477;48.072;11.970;2022-08-07T17:45:57;3.35;;;2.03;;
65206;SDS011;58477;48.072;11.970;2022-08-07T17:48:32;3.10;;;1.80;;
65206;SDS011;58477;48.072;11.970;2022-08-07T17:51:14;2.08;;;1.88;;
65206;SDS011;58477;48.072;11.970;2022-08-07T17:53:52;3.78;;;2.03;;
65206;SDS011;58477;48.072;11.970;2022-08-07T18:01:52;2.50;;;1.90;;
65206;SDS011;58477;48.072;11.970;2022-08-07T18:09:30;2.33;;;1.85;;
65206;SDS011;58477;48.072;11.970;2022-08-07T18:14:50;2.20;;;2.00;;
65206;SDS011;58477;48.072;11.970;2022-08-07T18:20:08;2.00;;;1.58;;
65206;SDS011;58477;48.072;11.970;2022-08-07T18:22:47;3.05;;;1.92;;
65206;SDS011;58477;48.072;11.970;2022-08-07T18:25:21;2.97;;;2.00;;
65206;SDS011;58477;48.072;11.970;2022-08-07T18:30:47;4.13;;;2.00;;
65206;SDS011;58477;48.072;11.970;2022-08-07T18:36:30;4.07;;;1.90;;
65206;SDS011;58477;48.072;11.970;2022-08-07T18:39:19;2.50;;;1.67;;
65206;SDS011;58477;48.072;11.970;2022-08-07T18:47:28;3.90;;;2.00;;
65206;SDS011;58477;48.072;11.970;2022-08-07T19:01:49;2.00;;;1.90;;
65206;SDS011;58477;48.072;11.970;2022-08-07T19:07:10;1.63;;;1.52;;
65206;SDS011;58477;48.072;11.970;2022-08-07T19:15:17;2.38;;;1.90;;
65206;SDS011;58477;48.072;11.970;2022-08-07T19:20:45;8.30;;;1.88;;
65206;SDS011;58477;48.072;11.970;2022-08-07T19:23:26;3.83;;;1.70;;
65206;SDS011;58477;48.072;11.970;2022-08-07T19:25:57;2.45;;;1.90;;
65206;SDS011;58477;48.072;11.970;2022-08-07T19:28:26;3.63;;;1.75;;
65206;SDS011;58477;48.072;11.970;2022-08-07T19:31:15;2.20;;;1.70;;
65206;SDS011;58477;48.072;11.970;2022-08-07T19:33:54;5.55;;;1.98;;
65206;SDS011;58477;48.072;11.970;2022-08-07T19:36:23;3.90;;;1.90;;